Gujranwala Weather



Gujranwala's Current Weather

Temprature 11o fog

fog

Rain: 0 %

Min Temprature11o
Max Temprature11o
Humidity93
Wind Speed2.1 m/h
Sun Rise06:54:24
Sun Set16:59:12
Current Time: 12-Dec-2019 01:31:35
Lat/Lon: 32.15, 74.19




Gujranwala's Geo Location



Gujranwala's Weather Forecast

Time Overall Temp Min Temp Max Temp Humidity Wind Speed Rain
12-Dec-2019 (Thu)
02:00:00 overcast clouds 11.630 11.630 14.740 37 2.5 m/h 0 %
05:00:00 overcast clouds 10.760 10.760 13.090 44 1.55 m/h 0 %
08:00:00 overcast clouds 12.970 12.970 14.530 39 1 m/h 0 %
11:00:00 overcast clouds 17.390 17.390 18.170 27 2.49 m/h 0 %
14:00:00 overcast clouds 15.590 15.590 15.590 53 4.23 m/h 0 %
17:00:00 light rain 12.370 12.370 12.370 79 1.71 m/h 200 %
20:00:00 light rain 11.420 11.420 11.420 85 4.06 m/h 219 %
23:00:00 moderate rain 11.060 11.060 11.060 92 2.36 m/h 406 %
13-Dec-2019 (Fri)
02:00:00 moderate rain 11.350 11.350 11.350 93 2.51 m/h 444 %
05:00:00 light rain 11.460 11.460 11.460 92 1.85 m/h 225 %
08:00:00 light rain 11.750 11.750 11.750 90 2.13 m/h 75 %
11:00:00 light rain 14.530 14.530 14.530 74 3.06 m/h 13 %
14:00:00 overcast clouds 16.180 16.180 16.180 62 2.17 m/h 0 %
17:00:00 broken clouds 15.160 15.160 15.160 66 1.88 m/h 0 %
20:00:00 light rain 12.660 12.660 12.660 83 1.52 m/h 6 %
23:00:00 few clouds 11.900 11.900 11.900 83 0.08 m/h 0 %
14-Dec-2019 (Sat)
02:00:00 clear sky 11.160 11.160 11.160 85 0.54 m/h 0 %
05:00:00 clear sky 10.490 10.490 10.490 88 0.65 m/h 0 %
08:00:00 clear sky 11.310 11.310 11.310 86 1.52 m/h 0 %
11:00:00 clear sky 15.890 15.890 15.890 63 1.55 m/h 0 %
14:00:00 clear sky 17.910 17.910 17.910 50 0.65 m/h 0 %
17:00:00 clear sky 15.600 15.600 15.600 58 1 m/h 0 %
20:00:00 few clouds 13.830 13.830 13.830 68 1.52 m/h 0 %
23:00:00 clear sky 12.730 12.730 12.730 74 0.76 m/h 0 %
15-Dec-2019 (Sun)
02:00:00 overcast clouds 11.870 11.870 11.870 80 1.7 m/h 0 %
05:00:00 overcast clouds 10.930 10.930 10.930 85 1.57 m/h 0 %
08:00:00 few clouds 11.250 11.250 11.250 84 1.75 m/h 0 %
11:00:00 clear sky 16.110 16.110 16.110 59 2.05 m/h 0 %
14:00:00 clear sky 18.240 18.240 18.240 46 1.76 m/h 0 %
17:00:00 clear sky 15.610 15.610 15.610 54 0.71 m/h 0 %
20:00:00 clear sky 14.160 14.160 14.160 59 0.21 m/h 0 %
23:00:00 clear sky 13.140 13.140 13.140 63 0.22 m/h 0 %
16-Dec-2019 (Mon)
02:00:00 clear sky 11.790 11.790 11.790 66 1.14 m/h 0 %
05:00:00 clear sky 10.990 10.990 10.990 66 0.86 m/h 0 %
08:00:00 clear sky 11.680 11.680 11.680 64 1.09 m/h 0 %
11:00:00 clear sky 16.690 16.690 16.690 45 2.13 m/h 0 %
14:00:00 clear sky 18.870 18.870 18.870 37 2.67 m/h 0 %
17:00:00 clear sky 15.900 15.900 15.900 44 1.65 m/h 0 %
20:00:00 clear sky 14.040 14.040 14.040 44 1.25 m/h 0 %
23:00:00 clear sky 12.500 12.500 12.500 48 1.94 m/h 0 %

Famous Cities (61)